Terminal Aerodrome Forecast
Issued by NWS

Home | Current Version | Previous Version | Graphics & Text | Print | Product List | Glossary On
Versions: 1 2 3 4 5 6 7 8 9 10 11 12 13 14 15 16 17 18
000
FTUS43 KUNR 260100 AAA
TAFGCC
TAF AMD
KGCC 260115Z 2601/2624 01013KT 3SM BR OVC004
      TEMPO 2601/2605 1SM BR OVC002
     FM260500 01010KT 1SM BR OVC002
     FM261500 01010KT 5SM BR OVC008=

USA.gov is the U.S. government's official web portal to all federal, state and local government web resources and services.